Skip Navigation Links
Home and Info
Weather Forecast
Mountsorrel Weather
Climate Reports
Fun Stuff
Storm Chasing Pictures
Weather Tools
Me Only!
Stormchaser Mountsorrel Leicester current Weather StormChaser Mountsorrel Leicester current Weather


31 October 2014 Climate report for Mountsorrel.

 

Mountsorrel Weather Climate values are an adverage reading taken during the hour before the one displayed.

The bottom value is the Mean or Total of all the values during the day.


TimeAir TempGround TempDew PointRH%RainSun MinutesWind RunWind HiWind Dir BarometerWxWxTxt
Oct 31 2014 11:00PM 15.4 12.1 12.4 82 --- --- 9 15 SSWWind direction 1009.9 Mostly Clouds Mostly Clouds
Oct 31 2014 10:00PM 15.3 11.5 11.8 79 --- --- 6 9 SWind direction 1010.3
Oct 31 2014 9:00PM 16.1 11.9 11.8 76 --- --- 6 9 SWind direction 1010.4
Oct 31 2014 8:00PM 16.9 12.6 12.1 73 --- --- 9 17 SSWWind direction 1010.4
Oct 31 2014 7:00PM 17.5 13.1 12.3 71 --- --- 10 17 SWind direction 1010.4
Oct 31 2014 6:00PM 18.2 13.7 12.3 68 --- --- 7 12 SWind direction 1010.5
Oct 31 2014 5:00PM 18.9 14.7 12.5 66 --- --- 8 12 SWind direction 1010.7
Oct 31 2014 4:00PM 19.5 16.5 12.8 65 --- --- 8 14 SWind direction 1010.9
Oct 31 2014 3:00PM 20.1 18.3 13.3 65 --- --- 10 15 SWind direction 1011.2
Oct 31 2014 2:00PM 19.3 18.9 13.9 70 --- --- 6 12 SWind direction 1011.9
Oct 31 2014 1:00PM 18.4 18.4 14.2 76 --- --- 6 11 SWind direction 1012.6
Oct 31 2014 12:00PM 17.6 17.6 14.3 81 --- --- 6 9 SWind direction 1013.4
Oct 31 2014 11:00AM 17.1 16.7 14.2 82 --- --- 8 12 SWind direction 1013.9
Oct 31 2014 10:00AM 15.6 15.4 13.7 88 --- --- 9 12 SWind direction 1013.8 Haze Haze
Oct 31 2014 9:00AM 14.7 13.8 13.4 91 --- --- 6 8 SWind direction 1013.8 Mist Mist
Oct 31 2014 8:00AM 14.8 13.3 13.5 91 --- --- 6 9 SSWWind direction 1013.8 Mist Mist
Oct 31 2014 7:00AM 14.9 13.9 13.7 92 --- --- 7 11 SSWWind direction 1013.6 Haze Haze
Oct 31 2014 6:00AM 14.6 13.8 13.4 92 --- --- 9 13 SSWWind direction 1013.6 Haze Haze
Oct 31 2014 5:00AM 14.0 12.1 12.4 90 --- --- 4 7 SWind direction 1013.6 Mist Mist
Oct 31 2014 4:00AM 14.5 11.3 12.8 89 --- --- 4 8 SWind direction 1013.9 Mist Mist
Oct 31 2014 3:00AM 14.9 12.8 13.3 90 --- --- 7 11 SSWWind direction 1014.1 Mist Mist
Oct 31 2014 2:00AM 14.8 13.4 13.1 89 --- --- 10 16 SSWWind direction 1014.4 Haze Haze
Oct 31 2014 1:00AM 14.9 13.6 13.0 88 --- --- 11 14 SSWWind direction 1014.6 Haze Haze
Totals 16.4 14.3 13.1 80 0.0 00:00 172    1012.4   








The Mountsorrel Weather Station is located in Mountsorrel which is just South of Loughborough and just North of Leicester in Leicestershire.
It is maintained by Stormchaser Stuart Robinson whose passion is for all type of weather but especially the more severe types of weather such as Hurricanes, Typhoon and Tornadoes.